sensor_id;sensor_type;location;lat;lon;timestamp;pressure;altitude;pressure_sealevel;temperature;humidity
74422;BME280;62856;51.446;8.360;2023-07-31T00:00:13;97464.69;;;21.87;56.22
74422;BME280;62856;51.446;8.360;2023-07-31T00:02:38;97466.69;;;21.90;56.20
74422;BME280;62856;51.446;8.360;2023-07-31T00:05:04;97467.44;;;21.87;56.28
74422;BME280;62856;51.446;8.360;2023-07-31T00:07:30;97461.53;;;21.85;56.39
74422;BME280;62856;51.446;8.360;2023-07-31T00:09:55;97453.34;;;21.88;56.24
74422;BME280;62856;51.446;8.360;2023-07-31T00:12:22;97452.22;;;21.93;56.56
74422;BME280;62856;51.446;8.360;2023-07-31T00:14:47;97456.13;;;21.92;56.27
74422;BME280;62856;51.446;8.360;2023-07-31T00:17:13;97450.63;;;21.92;56.74
74422;BME280;62856;51.446;8.360;2023-07-31T00:19:38;97461.63;;;21.92;56.35
74422;BME280;62856;51.446;8.360;2023-07-31T00:22:04;97441.94;;;21.86;56.22
74422;BME280;62856;51.446;8.360;2023-07-31T00:24:29;97456.13;;;21.92;56.49
74422;BME280;62856;51.446;8.360;2023-07-31T00:26:54;97449.78;;;21.88;56.57
74422;BME280;62856;51.446;8.360;2023-07-31T00:29:20;97453.75;;;21.90;56.65
74422;BME280;62856;51.446;8.360;2023-07-31T00:31:45;97444.31;;;21.88;56.96
74422;BME280;62856;51.446;8.360;2023-07-31T00:34:10;97450.59;;;21.88;56.67
74422;BME280;62856;51.446;8.360;2023-07-31T00:36:36;97432.53;;;21.87;56.84
74422;BME280;62856;51.446;8.360;2023-07-31T00:39:01;97444.69;;;21.86;56.94
74422;BME280;62856;51.446;8.360;2023-07-31T00:41:27;97437.28;;;21.90;56.88
74422;BME280;62856;51.446;8.360;2023-07-31T00:43:52;97445.91;;;21.89;56.62
74422;BME280;62856;51.446;8.360;2023-07-31T00:46:17;97436.13;;;21.91;56.62
74422;BME280;62856;51.446;8.360;2023-07-31T00:48:43;97436.97;;;21.95;56.69
74422;BME280;62856;51.446;8.360;2023-07-31T00:51:09;97440.06;;;21.94;56.78
74422;BME280;62856;51.446;8.360;2023-07-31T00:53:35;97436.16;;;21.95;56.90
74422;BME280;62856;51.446;8.360;2023-07-31T00:56:01;97423.16;;;21.88;56.92
74422;BME280;62856;51.446;8.360;2023-07-31T00:58:26;97433.69;;;21.86;56.81
74422;BME280;62856;51.446;8.360;2023-07-31T01:00:52;97419.94;;;21.83;57.30
74422;BME280;62856;51.446;8.360;2023-07-31T01:03:17;97421.56;;;21.87;57.11
74422;BME280;62856;51.446;8.360;2023-07-31T01:05:55;97424.72;;;21.89;56.79
74422;BME280;62856;51.446;8.360;2023-07-31T01:08:52;97415.66;;;21.85;57.22
74422;BME280;62856;51.446;8.360;2023-07-31T01:11:43;97413.72;;;21.89;56.93
74422;BME280;62856;51.446;8.360;2023-07-31T01:14:11;97407.06;;;21.87;57.08
74422;BME280;62856;51.446;8.360;2023-07-31T01:16:36;97414.91;;;21.88;57.00
74422;BME280;62856;51.446;8.360;2023-07-31T01:19:01;97415.66;;;21.85;57.20
74422;BME280;62856;51.446;8.360;2023-07-31T01:24:17;97408.53;;;21.81;57.40
74422;BME280;62856;51.446;8.360;2023-07-31T01:26:47;97405.03;;;21.84;57.53
74422;BME280;62856;51.446;8.360;2023-07-31T01:31:48;97417.66;;;21.88;57.33
74422;BME280;62856;51.446;8.360;2023-07-31T01:34:16;97409.44;;;21.88;57.29
74422;BME280;62856;51.446;8.360;2023-07-31T01:36:43;97416.06;;;21.87;57.38
74422;BME280;62856;51.446;8.360;2023-07-31T01:39:08;97404.31;;;21.87;57.33
74422;BME280;62856;51.446;8.360;2023-07-31T01:41:33;97407.78;;;21.84;57.52
74422;BME280;62856;51.446;8.360;2023-07-31T01:43:59;97412.13;;;21.85;57.40
74422;BME280;62856;51.446;8.360;2023-07-31T01:48:50;97412.47;;;21.80;57.52
74422;BME280;62856;51.446;8.360;2023-07-31T01:51:15;97400.34;;;21.84;57.63
74422;BME280;62856;51.446;8.360;2023-07-31T01:53:40;97410.13;;;21.82;57.70
74422;BME280;62856;51.446;8.360;2023-07-31T01:56:09;97412.13;;;21.85;57.63
74422;BME280;62856;51.446;8.360;2023-07-31T01:58:34;97410.03;;;21.78;57.57
74422;BME280;62856;51.446;8.360;2023-07-31T02:01:00;97416.00;;;21.84;58.05
74422;BME280;62856;51.446;8.360;2023-07-31T02:03:25;97414.44;;;21.83;57.72
74422;BME280;62856;51.446;8.360;2023-07-31T02:05:50;97416.00;;;21.84;57.77
74422;BME280;62856;51.446;8.360;2023-07-31T02:08:16;97407.06;;;21.87;57.74
74422;BME280;62856;51.446;8.360;2023-07-31T02:10:42;97409.44;;;21.88;57.63
74422;BME280;62856;51.446;8.360;2023-07-31T02:13:08;97399.16;;;21.82;57.48
74422;BME280;62856;51.446;8.360;2023-07-31T02:15:34;97393.72;;;21.85;57.90
74422;BME280;62856;51.446;8.360;2023-07-31T02:17:59;97386.59;;;21.81;57.72
74422;BME280;62856;51.446;8.360;2023-07-31T02:20:24;97398.78;;;21.83;57.41
74422;BME280;62856;51.446;8.360;2023-07-31T02:25:15;97403.88;;;21.85;57.54
74422;BME280;62856;51.446;8.360;2023-07-31T02:27:41;97397.22;;;21.86;57.81
74422;BME280;62856;51.446;8.360;2023-07-31T02:30:07;97390.50;;;21.80;57.71
74422;BME280;62856;51.446;8.360;2023-07-31T02:32:32;97386.16;;;21.79;57.80
74422;BME280;62856;51.446;8.360;2023-07-31T02:34:58;97389.31;;;21.81;57.89
74422;BME280;62856;51.446;8.360;2023-07-31T02:37:23;97388.41;;;21.73;58.12
74422;BME280;62856;51.446;8.360;2023-07-31T02:39:49;97392.78;;;21.78;58.05
74422;BME280;62856;51.446;8.360;2023-07-31T02:42:14;97398.75;;;21.80;58.01
74422;BME280;62856;51.446;8.360;2023-07-31T02:44:40;97393.94;;;21.77;58.18
74422;BME280;62856;51.446;8.360;2023-07-31T02:47:05;97387.69;;;21.76;58.12
74422;BME280;62856;51.446;8.360;2023-07-31T02:49:31;97391.28;;;21.80;57.98
74422;BME280;62856;51.446;8.360;2023-07-31T02:51:56;97393.94;;;21.77;58.00
74422;BME280;62856;51.446;8.360;2023-07-31T02:54:21;97380.69;;;21.79;57.99
74422;BME280;62856;51.446;8.360;2023-07-31T02:56:47;97386.09;;;21.75;58.29
74422;BME280;62856;51.446;8.360;2023-07-31T02:59:13;97378.28;;;21.77;57.96
74422;BME280;62856;51.446;8.360;2023-07-31T03:01:38;97386.59;;;21.81;57.80
74422;BME280;62856;51.446;8.360;2023-07-31T03:04:04;97394.84;;;21.84;57.99
74422;BME280;62856;51.446;8.360;2023-07-31T03:06:30;97394.81;;;21.81;57.98
74422;BME280;62856;51.446;8.360;2023-07-31T03:08:55;97392.06;;;21.81;57.92
74422;BME280;62856;51.446;8.360;2023-07-31T03:11:20;97390.81;;;21.78;57.92
74422;BME280;62856;51.446;8.360;2023-07-31T03:13:46;97397.88;;;21.76;58.13
74422;BME280;62856;51.446;8.360;2023-07-31T03:16:11;97405.78;;;21.81;57.81
74422;BME280;62856;51.446;8.360;2023-07-31T03:18:36;97408.13;;;21.79;57.99
74422;BME280;62856;51.446;8.360;2023-07-31T03:21:02;97403.72;;;21.74;58.10
74422;BME280;62856;51.446;8.360;2023-07-31T03:23:27;97394.75;;;21.77;57.92
74422;BME280;62856;51.446;8.360;2023-07-31T03:26:01;97389.22;;;21.74;58.06
74422;BME280;62856;51.446;8.360;2023-07-31T03:28:28;97383.72;;;21.74;57.99
74422;BME280;62856;51.446;8.360;2023-07-31T03:30:54;97387.69;;;21.76;58.05
74422;BME280;62856;51.446;8.360;2023-07-31T03:33:19;97384.16;;;21.76;58.03
74422;BME280;62856;51.446;8.360;2023-07-31T03:35:45;97379.81;;;21.75;58.09
74422;BME280;62856;51.446;8.360;2023-07-31T03:38:10;97384.56;;;21.78;57.93
74422;BME280;62856;51.446;8.360;2023-07-31T03:40:36;97384.16;;;21.76;58.07
74422;BME280;62856;51.446;8.360;2023-07-31T03:43:01;97388.44;;;21.77;58.02
74422;BME280;62856;51.446;8.360;2023-07-31T03:45:26;97374.34;;;21.78;57.77
